sensor_id;sensor_type;location;lat;lon;timestamp;pressure;altitude;pressure_sealevel;temperature;humidity
66479;BME280;53294;47.912;13.526;2023-02-23T00:01:53;95789.00;;;7.97;55.04
66479;BME280;53294;47.912;13.526;2023-02-23T00:04:21;95797.59;;;7.94;54.69
66479;BME280;53294;47.912;13.526;2023-02-23T00:06:49;95790.56;;;7.98;54.00
66479;BME280;53294;47.912;13.526;2023-02-23T00:09:19;95786.94;;;7.89;54.37
66479;BME280;53294;47.912;13.526;2023-02-23T00:11:55;95796.06;;;7.88;54.33
66479;BME280;53294;47.912;13.526;2023-02-23T00:14:27;95793.88;;;7.90;54.35
66479;BME280;53294;47.912;13.526;2023-02-23T00:16:54;95798.47;;;7.65;54.95
66479;BME280;53294;47.912;13.526;2023-02-23T00:19:22;95797.50;;;7.56;55.77
66479;BME280;53294;47.912;13.526;2023-02-23T00:21:51;95798.59;;;7.01;59.06
66479;BME280;53294;47.912;13.526;2023-02-23T00:24:18;95800.28;;;6.92;59.62
66479;BME280;53294;47.912;13.526;2023-02-23T00:26:47;95792.50;;;6.96;59.34
66479;BME280;53294;47.912;13.526;2023-02-23T00:29:19;95793.59;;;7.19;58.24
66479;BME280;53294;47.912;13.526;2023-02-23T00:31:48;95800.97;;;7.32;57.18
66479;BME280;53294;47.912;13.526;2023-02-23T00:34:17;95805.81;;;7.30;57.08
66479;BME280;53294;47.912;13.526;2023-02-23T00:36:51;95796.09;;;7.40;56.46
66479;BME280;53294;47.912;13.526;2023-02-23T00:39:22;95799.34;;;7.36;56.75
66479;BME280;53294;47.912;13.526;2023-02-23T00:41:52;95801.44;;;7.40;56.42
66479;BME280;53294;47.912;13.526;2023-02-23T00:44:22;95801.44;;;7.40;56.55
66479;BME280;53294;47.912;13.526;2023-02-23T00:46:49;95799.44;;;7.26;56.84
66479;BME280;53294;47.912;13.526;2023-02-23T00:49:19;95803.16;;;7.25;56.88
66479;BME280;53294;47.912;13.526;2023-02-23T00:51:46;95804.47;;;7.28;56.69
66479;BME280;53294;47.912;13.526;2023-02-23T00:54:14;95798.09;;;7.24;57.27
66479;BME280;53294;47.912;13.526;2023-02-23T00:56:41;95802.94;;;6.92;58.83
66479;BME280;53294;47.912;13.526;2023-02-23T00:59:08;95801.44;;;6.81;59.70
66479;BME280;53294;47.912;13.526;2023-02-23T01:01:35;95810.13;;;6.97;58.42
66479;BME280;53294;47.912;13.526;2023-02-23T01:04:08;95805.66;;;6.87;59.01
66479;BME280;53294;47.912;13.526;2023-02-23T01:06:35;95808.53;;;6.61;60.11
66479;BME280;53294;47.912;13.526;2023-02-23T01:09:11;95805.38;;;6.89;59.94
66479;BME280;53294;47.912;13.526;2023-02-23T01:11:39;95805.63;;;6.58;60.46
66479;BME280;53294;47.912;13.526;2023-02-23T01:14:12;95805.28;;;6.70;60.02
66479;BME280;53294;47.912;13.526;2023-02-23T01:16:39;95803.75;;;6.58;60.45
66479;BME280;53294;47.912;13.526;2023-02-23T01:19:05;95800.81;;;6.60;60.15
66479;BME280;53294;47.912;13.526;2023-02-23T01:21:39;95798.84;;;6.76;59.42
66479;BME280;53294;47.912;13.526;2023-02-23T01:24:07;95803.59;;;6.79;58.93
66479;BME280;53294;47.912;13.526;2023-02-23T01:26:37;95796.00;;;6.91;58.78
66479;BME280;53294;47.912;13.526;2023-02-23T01:29:07;95801.97;;;6.83;59.22
66479;BME280;53294;47.912;13.526;2023-02-23T01:31:36;95800.41;;;6.77;59.44
66479;BME280;53294;47.912;13.526;2023-02-23T01:34:05;95797.69;;;6.82;59.64
66479;BME280;53294;47.912;13.526;2023-02-23T01:36:34;95798.53;;;6.77;59.83
66479;BME280;53294;47.912;13.526;2023-02-23T01:39:02;95790.72;;;6.86;59.60
66479;BME280;53294;47.912;13.526;2023-02-23T01:41:31;95800.19;;;6.73;60.66
66479;BME280;53294;47.912;13.526;2023-02-23T01:46:34;95791.19;;;6.93;59.60
66479;BME280;53294;47.912;13.526;2023-02-23T01:49:02;95782.63;;;6.96;58.88
66479;BME280;53294;47.912;13.526;2023-02-23T01:51:37;95789.38;;;6.89;59.62
66479;BME280;53294;47.912;13.526;2023-02-23T01:54:18;95789.53;;;6.97;59.17
66479;BME280;53294;47.912;13.526;2023-02-23T01:56:50;95794.06;;;6.73;60.28
66479;BME280;53294;47.912;13.526;2023-02-23T02:01:55;95788.72;;;6.33;62.88
66479;BME280;53294;47.912;13.526;2023-02-23T02:04:22;95789.34;;;6.59;60.78
66479;BME280;53294;47.912;13.526;2023-02-23T02:06:51;95790.78;;;6.81;59.72
66479;BME280;53294;47.912;13.526;2023-02-23T02:09:22;95783.28;;;6.83;59.66
66479;BME280;53294;47.912;13.526;2023-02-23T02:11:53;95781.09;;;6.85;59.38
66479;BME280;53294;47.912;13.526;2023-02-23T02:14:29;95780.72;;;6.68;60.61
66479;BME280;53294;47.912;13.526;2023-02-23T02:40:13;95775.34;;;7.02;59.44
66479;BME280;53294;47.912;13.526;2023-02-23T02:42:54;95782.38;;;6.93;59.51
66479;BME280;53294;47.912;13.526;2023-02-23T02:45:36;95777.72;;;6.45;62.58
66479;BME280;53294;47.912;13.526;2023-02-23T02:48:19;95782.88;;;6.65;61.67
66479;BME280;53294;47.912;13.526;2023-02-23T02:51:04;95779.59;;;6.74;60.81
66479;BME280;53294;47.912;13.526;2023-02-23T02:56:10;95780.09;;;6.81;59.56
66479;BME280;53294;47.912;13.526;2023-02-23T02:58:38;95776.03;;;6.89;59.28
66479;BME280;53294;47.912;13.526;2023-02-23T03:01:12;95774.28;;;6.74;60.42
66479;BME280;53294;47.912;13.526;2023-02-23T03:04:01;95785.81;;;6.29;62.75
66479;BME280;53294;47.912;13.526;2023-02-23T03:06:58;95779.84;;;6.43;61.81
66479;BME280;53294;47.912;13.526;2023-02-23T03:10:01;95786.41;;;6.61;60.52
66479;BME280;53294;47.912;13.526;2023-02-23T03:19:06;95785.34;;;6.57;62.17
66479;BME280;53294;47.912;13.526;2023-02-23T03:21:57;95786.06;;;5.83;64.79
66479;BME280;53294;47.912;13.526;2023-02-23T03:27:57;95780.72;;;6.33;61.59
66479;BME280;53294;47.912;13.526;2023-02-23T03:30:56;95777.28;;;6.27;62.52
66479;BME280;53294;47.912;13.526;2023-02-23T03:33:57;95782.69;;;6.17;62.67
66479;BME280;53294;47.912;13.526;2023-02-23T03:36:52;95786.28;;;6.37;61.96
66479;BME280;53294;47.912;13.526;2023-02-23T03:39:47;95788.94;;;6.42;61.24
66479;BME280;53294;47.912;13.526;2023-02-23T03:42:36;95787.28;;;6.46;60.74
66479;BME280;53294;47.912;13.526;2023-02-23T03:45:25;95788.94;;;6.42;61.01
66479;BME280;53294;47.912;13.526;2023-02-23T03:48:12;95789.72;;;6.42;60.59
66479;BME280;53294;47.912;13.526;2023-02-23T03:51:02;95788.94;;;6.42;60.54
66479;BME280;53294;47.912;13.526;2023-02-23T03:54:06;95785.63;;;6.55;60.51
66479;BME280;53294;47.912;13.526;2023-02-23T03:56:55;95788.31;;;6.10;62.82
66479;BME280;53294;47.912;13.526;2023-02-23T03:59:57;95784.13;;;5.94;64.08
66479;BME280;53294;47.912;13.526;2023-02-23T04:02:46;95793.84;;;6.24;62.36
66479;BME280;53294;47.912;13.526;2023-02-23T04:05:36;95792.25;;;6.23;62.20
66479;BME280;53294;47.912;13.526;2023-02-23T04:08:27;95785.84;;;6.24;62.15
66479;BME280;53294;47.912;13.526;2023-02-23T04:11:41;95791.63;;;6.37;61.68
66479;BME280;53294;47.912;13.526;2023-02-23T04:17:26;95789.50;;;6.39;61.99
66479;BME280;53294;47.912;13.526;2023-02-23T04:19:54;95788.13;;;6.46;61.58
66479;BME280;53294;47.912;13.526;2023-02-23T04:22:22;95788.94;;;6.42;62.46
66479;BME280;53294;47.912;13.526;2023-02-23T04:24:49;95792.81;;;6.20;64.25
66479;BME280;53294;47.912;13.526;2023-02-23T04:27:16;95792.81;;;6.20;65.19
66479;BME280;53294;47.912;13.526;2023-02-23T04:29:43;95783.13;;;6.35;63.45
66479;BME280;53294;47.912;13.526;2023-02-23T04:32:17;95794.50;;;6.45;63.67
66479;BME280;53294;47.912;13.526;2023-02-23T04:34:44;95791.53;;;6.52;63.08
66479;BME280;53294;47.912;13.526;2023-02-23T04:37:11;95788.28;;;6.55;63.31
66479;BME280;53294;47.912;13.526;2023-02-23T04:39:38;95790.22;;;6.50;64.51
66479;BME280;53294;47.912;13.526;2023-02-23T04:42:05;95793.06;;;6.58;63.85
66479;BME280;53294;47.912;13.526;2023-02-23T04:44:32;95786.22;;;6.47;64.93
66479;BME280;53294;47.912;13.526;2023-02-23T04:46:58;95797.91;;;6.56;64.07
66479;BME280;53294;47.912;13.526;2023-02-23T04:49:25;95790.47;;;6.53;64.63
66479;BME280;53294;47.912;13.526;2023-02-23T04:51:51;95795.94;;;6.33;65.80
66479;BME280;53294;47.912;13.526;2023-02-23T04:54:18;95792.69;;;6.41;65.56
66479;BME280;53294;47.912;13.526;2023-02-23T04:56:45;95791.34;;;6.38;65.77
66479;BME280;53294;47.912;13.526;2023-02-23T04:59:11;95792.06;;;6.49;64.97
66479;BME280;53294;47.912;13.526;2023-02-23T05:01:38;95796.56;;;6.59;64.50
66479;BME280;53294;47.912;13.526;2023-02-23T05:04:05;95796.28;;;6.60;64.80
66479;BME280;53294;47.912;13.526;2023-02-23T05:06:32;95789.22;;;6.75;63.83
66479;BME280;53294;47.912;13.526;2023-02-23T05:08:58;95789.78;;;6.72;64.24
66479;BME280;53294;47.912;13.526;2023-02-23T05:11:25;95797.78;;;6.72;64.49
66479;BME280;53294;47.912;13.526;2023-02-23T05:13:53;95799.94;;;6.70;65.14
66479;BME280;53294;47.912;13.526;2023-02-23T05:16:20;95791.97;;;6.64;65.61
66479;BME280;53294;47.912;13.526;2023-02-23T05:18:47;95793.50;;;6.76;64.92
66479;BME280;53294;47.912;13.526;2023-02-23T05:21:14;95788.59;;;6.83;64.23
66479;BME280;53294;47.912;13.526;2023-02-23T05:23:41;95796.16;;;7.05;63.35
66479;BME280;53294;47.912;13.526;2023-02-23T05:26:09;95795.28;;;7.15;63.16
66479;BME280;53294;47.912;13.526;2023-02-23T05:28:38;95799.78;;;6.90;64.85
66479;BME280;53294;47.912;13.526;2023-02-23T05:31:05;95801.53;;;6.71;67.20
66479;BME280;53294;47.912;13.526;2023-02-23T05:33:34;95803.03;;;6.82;65.16
66479;BME280;53294;47.912;13.526;2023-02-23T05:36:09;95801.91;;;6.88;65.07
66479;BME280;53294;47.912;13.526;2023-02-23T05:38:38;95797.97;;;7.10;64.02
66479;BME280;53294;47.912;13.526;2023-02-23T05:41:11;95801.81;;;6.98;64.57
66479;BME280;53294;47.912;13.526;2023-02-23T05:43:38;95797.41;;;7.13;63.98
66479;BME280;53294;47.912;13.526;2023-02-23T05:46:07;95805.63;;;6.92;65.43
66479;BME280;53294;47.912;13.526;2023-02-23T05:48:34;95801.25;;;7.01;64.77
66479;BME280;53294;47.912;13.526;2023-02-23T05:51:03;95804.97;;;7.06;64.43
66479;BME280;53294;47.912;13.526;2023-02-23T05:53:30;95807.25;;;6.88;66.02
66479;BME280;53294;47.912;13.526;2023-02-23T05:55:57;95809.22;;;7.07;65.31
66479;BME280;53294;47.912;13.526;2023-02-23T05:58:23;95809.13;;;7.17;64.28
66479;BME280;53294;47.912;13.526;2023-02-23T06:00:50;95800.97;;;7.32;63.13
66479;BME280;53294;47.912;13.526;2023-02-23T06:03:17;95813.25;;;7.04;65.13
66479;BME280;53294;47.912;13.526;2023-02-23T06:05:55;95807.88;;;7.09;65.14
66479;BME280;53294;47.912;13.526;2023-02-23T06:08:23;95805.47;;;7.08;65.12
66479;BME280;53294;47.912;13.526;2023-02-23T06:10:51;95809.91;;;7.17;64.54
66479;BME280;53294;47.912;13.526;2023-02-23T06:13:18;95807.94;;;7.28;63.19
66479;BME280;53294;47.912;13.526;2023-02-23T06:15:46;95814.53;;;7.36;62.87
66479;BME280;53294;47.912;13.526;2023-02-23T06:18:15;95808.75;;;7.53;61.69
66479;BME280;53294;47.912;13.526;2023-02-23T06:20:44;95808.69;;;7.58;61.92
66479;BME280;53294;47.912;13.526;2023-02-23T06:23:11;95813.56;;;7.75;61.10
66479;BME280;53294;47.912;13.526;2023-02-23T06:25:38;95824.06;;;7.71;61.26
66479;BME280;53294;47.912;13.526;2023-02-23T06:28:05;95823.56;;;7.69;61.78
66479;BME280;53294;47.912;13.526;2023-02-23T06:30:34;95823.59;;;7.64;62.08
66479;BME280;53294;47.912;13.526;2023-02-23T06:33:01;95821.94;;;7.68;61.58
66479;BME280;53294;47.912;13.526;2023-02-23T06:35:28;95832.47;;;7.84;61.38
66479;BME280;53294;47.912;13.526;2023-02-23T06:37:55;95832.34;;;7.70;62.37
66479;BME280;53294;47.912;13.526;2023-02-23T06:40:22;95836.22;;;7.83;61.60
66479;BME280;53294;47.912;13.526;2023-02-23T06:42:49;95841.56;;;7.83;61.58
66479;BME280;53294;47.912;13.526;2023-02-23T06:45:16;95849.53;;;7.64;63.87
66479;BME280;53294;47.912;13.526;2023-02-23T06:47:45;95839.81;;;7.73;62.55
66479;BME280;53294;47.912;13.526;2023-02-23T06:50:12;95851.19;;;7.84;62.12
66479;BME280;53294;47.912;13.526;2023-02-23T06:52:40;95847.84;;;7.97;62.14
66479;BME280;53294;47.912;13.526;2023-02-23T06:55:08;95846.06;;;7.87;62.57
66479;BME280;53294;47.912;13.526;2023-02-23T06:57:35;95855.47;;;7.85;62.87
66479;BME280;53294;47.912;13.526;2023-02-23T07:00:03;95853.88;;;7.84;63.18
66479;BME280;53294;47.912;13.526;2023-02-23T07:02:30;95856.34;;;7.99;62.58
66479;BME280;53294;47.912;13.526;2023-02-23T07:04:57;95849.41;;;7.98;62.60
66479;BME280;53294;47.912;13.526;2023-02-23T07:07:24;95858.91;;;8.09;62.13
66479;BME280;53294;47.912;13.526;2023-02-23T07:09:51;95861.59;;;8.09;62.74
66479;BME280;53294;47.912;13.526;2023-02-23T07:12:17;95857.41;;;8.22;62.33
66479;BME280;53294;47.912;13.526;2023-02-23T07:14:44;95861.91;;;8.27;61.98
66479;BME280;53294;47.912;13.526;2023-02-23T07:17:11;95862.41;;;8.29;61.80
66479;BME280;53294;47.912;13.526;2023-02-23T07:19:38;95857.41;;;8.41;61.55
66479;BME280;53294;47.912;13.526;2023-02-23T07:22:04;95864.31;;;8.48;61.58
66479;BME280;53294;47.912;13.526;2023-02-23T07:24:31;95858.88;;;8.53;61.79
66479;BME280;53294;47.912;13.526;2023-02-23T07:26:58;95863.31;;;8.62;61.67
66479;BME280;53294;47.912;13.526;2023-02-23T07:29:24;95866.69;;;8.68;61.79
66479;BME280;53294;47.912;13.526;2023-02-23T07:31:53;95865.72;;;8.64;62.01
66479;BME280;53294;47.912;13.526;2023-02-23T07:34:20;95871.47;;;8.71;62.04
66479;BME280;53294;47.912;13.526;2023-02-23T07:36:47;95866.91;;;8.91;61.48
66479;BME280;53294;47.912;13.526;2023-02-23T07:39:13;95871.00;;;9.02;61.35
66479;BME280;53294;47.912;13.526;2023-02-23T07:41:40;95872.44;;;9.13;61.22
66479;BME280;53294;47.912;13.526;2023-02-23T07:44:07;95876.97;;;8.80;63.05
66479;BME280;53294;47.912;13.526;2023-02-23T07:46:34;95878.06;;;8.98;62.40
66479;BME280;53294;47.912;13.526;2023-02-23T07:49:00;95881.66;;;8.88;62.66
66479;BME280;53294;47.912;13.526;2023-02-23T07:51:28;95880.78;;;8.93;62.67
66479;BME280;53294;47.912;13.526;2023-02-23T07:53:55;95874.19;;;9.04;62.75
66479;BME280;53294;47.912;13.526;2023-02-23T07:56:21;95877.00;;;9.13;62.29
66479;BME280;53294;47.912;13.526;2023-02-23T07:58:48;95880.50;;;9.27;62.13
66479;BME280;53294;47.912;13.526;2023-02-23T08:01:15;95884.00;;;9.28;62.37
66479;BME280;53294;47.912;13.526;2023-02-23T08:03:42;95879.84;;;9.36;61.68
66479;BME280;53294;47.912;13.526;2023-02-23T08:06:18;95879.88;;;9.49;61.71
66479;BME280;53294;47.912;13.526;2023-02-23T08:08:45;95877.22;;;9.49;62.39
66479;BME280;53294;47.912;13.526;2023-02-23T08:11:12;95875.94;;;9.61;62.45
66479;BME280;53294;47.912;13.526;2023-02-23T08:13:39;95874.16;;;9.70;62.18
66479;BME280;53294;47.912;13.526;2023-02-23T08:16:06;95869.28;;;9.72;62.26
66479;BME280;53294;47.912;13.526;2023-02-23T08:18:32;95883.09;;;9.79;61.85
66479;BME280;53294;47.912;13.526;2023-02-23T08:21:03;95874.34;;;9.74;62.06
66479;BME280;53294;47.912;13.526;2023-02-23T08:23:31;95874.31;;;9.60;62.92
66479;BME280;53294;47.912;13.526;2023-02-23T08:25:59;95875.94;;;9.61;63.31
66479;BME280;53294;47.912;13.526;2023-02-23T08:28:27;95881.19;;;9.80;62.51
66479;BME280;53294;47.912;13.526;2023-02-23T08:30:54;95882.88;;;9.89;62.12
66479;BME280;53294;47.912;13.526;2023-02-23T08:33:21;95872.97;;;9.76;62.37
66479;BME280;53294;47.912;13.526;2023-02-23T08:35:48;95875.81;;;9.66;63.47
66479;BME280;53294;47.912;13.526;2023-02-23T08:38:14;95880.50;;;9.88;62.30
66479;BME280;53294;47.912;13.526;2023-02-23T08:40:41;95876.16;;;10.06;61.69
66479;BME280;53294;47.912;13.526;2023-02-23T08:43:09;95874.25;;;10.06;61.92
66479;BME280;53294;47.912;13.526;2023-02-23T08:45:36;95884.06;;;9.56;64.84
66479;BME280;53294;47.912;13.526;2023-02-23T08:48:06;95871.75;;;9.68;64.28
66479;BME280;53294;47.912;13.526;2023-02-23T08:50:32;95873.34;;;9.97;63.81
66479;BME280;53294;47.912;13.526;2023-02-23T08:52:59;95876.53;;;9.85;64.75
66479;BME280;53294;47.912;13.526;2023-02-23T08:55:26;95878.81;;;9.64;64.79
66479;BME280;53294;47.912;13.526;2023-02-23T08:57:52;95879.53;;;9.84;65.15
66479;BME280;53294;47.912;13.526;2023-02-23T09:00:19;95877.03;;;9.87;63.34
66479;BME280;53294;47.912;13.526;2023-02-23T09:02:46;95876.53;;;9.58;64.43
66479;BME280;53294;47.912;13.526;2023-02-23T09:05:14;95878.72;;;9.83;64.51
66479;BME280;53294;47.912;13.526;2023-02-23T09:07:42;95867.38;;;10.14;63.60
66479;BME280;53294;47.912;13.526;2023-02-23T09:10:14;95879.22;;;10.27;63.63
66479;BME280;53294;47.912;13.526;2023-02-23T09:12:41;95867.38;;;10.42;63.09
66479;BME280;53294;47.912;13.526;2023-02-23T09:15:08;95870.47;;;10.72;62.64
66479;BME280;53294;47.912;13.526;2023-02-23T09:17:35;95866.22;;;10.93;61.62
66479;BME280;53294;47.912;13.526;2023-02-23T09:20:03;95864.59;;;11.06;62.16
66479;BME280;53294;47.912;13.526;2023-02-23T09:22:30;95864.41;;;11.03;61.89
66479;BME280;53294;47.912;13.526;2023-02-23T09:24:57;95865.94;;;11.18;61.77
66479;BME280;53294;47.912;13.526;2023-02-23T09:27:24;95868.59;;;11.40;60.72
66479;BME280;53294;47.912;13.526;2023-02-23T09:29:50;95864.09;;;11.58;60.71
66479;BME280;53294;47.912;13.526;2023-02-23T09:32:17;95866.31;;;11.56;60.04
66479;BME280;53294;47.912;13.526;2023-02-23T09:34:44;95859.41;;;11.73;59.67
66479;BME280;53294;47.912;13.526;2023-02-23T09:37:11;95861.84;;;11.83;59.04
66479;BME280;53294;47.912;13.526;2023-02-23T09:39:37;95864.53;;;11.83;58.99
66479;BME280;53294;47.912;13.526;2023-02-23T09:42:19;95875.56;;;11.41;60.00
66479;BME280;53294;47.912;13.526;2023-02-23T09:50:41;95858.69;;;11.90;59.37
66479;BME280;53294;47.912;13.526;2023-02-23T09:55:50;95865.25;;;11.97;59.37
66479;BME280;53294;47.912;13.526;2023-02-23T09:58:25;95861.34;;;12.21;58.04
66479;BME280;53294;47.912;13.526;2023-02-23T10:03:39;95859.81;;;12.55;57.82
66479;BME280;53294;47.912;13.526;2023-02-23T10:06:13;95858.09;;;12.59;57.27
66479;BME280;53294;47.912;13.526;2023-02-23T10:09:02;95854.59;;;12.85;56.94
66479;BME280;53294;47.912;13.526;2023-02-23T10:17:38;95849.72;;;12.87;57.92
66479;BME280;53294;47.912;13.526;2023-02-23T10:22:45;95855.34;;;13.46;55.39
66479;BME280;53294;47.912;13.526;2023-02-23T10:25:16;95855.28;;;13.73;54.90
66479;BME280;53294;47.912;13.526;2023-02-23T10:27:49;95854.97;;;13.74;54.80
66479;BME280;53294;47.912;13.526;2023-02-23T10:30:31;95855.34;;;13.46;55.71
66479;BME280;53294;47.912;13.526;2023-02-23T10:35:43;95845.78;;;14.05;54.39
66479;BME280;53294;47.912;13.526;2023-02-23T10:38:16;95846.41;;;13.72;53.67
66479;BME280;53294;47.912;13.526;2023-02-23T10:40:48;95845.06;;;13.49;54.16
66479;BME280;53294;47.912;13.526;2023-02-23T10:43:15;95851.38;;;13.53;52.78
66479;BME280;53294;47.912;13.526;2023-02-23T10:45:47;95846.41;;;13.63;53.70
66479;BME280;53294;47.912;13.526;2023-02-23T10:48:17;95846.41;;;13.63;53.47
66479;BME280;53294;47.912;13.526;2023-02-23T10:50:47;95837.28;;;13.86;53.60
66479;BME280;53294;47.912;13.526;2023-02-23T10:55:43;95837.91;;;14.21;52.66
66479;BME280;53294;47.912;13.526;2023-02-23T10:58:14;95836.78;;;13.92;52.97
66479;BME280;53294;47.912;13.526;2023-02-23T11:01:01;95832.59;;;14.04;52.35
66479;BME280;53294;47.912;13.526;2023-02-23T11:03:31;95829.28;;;13.98;51.67
66479;BME280;53294;47.912;13.526;2023-02-23T11:05:59;95831.88;;;13.86;52.90
66479;BME280;53294;47.912;13.526;2023-02-23T11:13:40;95825.53;;;14.41;52.34
66479;BME280;53294;47.912;13.526;2023-02-23T11:16:13;95814.69;;;14.71;51.55
66479;BME280;53294;47.912;13.526;2023-02-23T11:18:47;95813.84;;;14.79;50.81
66479;BME280;53294;47.912;13.526;2023-02-23T11:21:26;95814.75;;;14.83;50.40
66479;BME280;53294;47.912;13.526;2023-02-23T11:23:57;95819.47;;;14.44;51.57
66479;BME280;53294;47.912;13.526;2023-02-23T11:26:39;95815.53;;;13.91;52.62
66479;BME280;53294;47.912;13.526;2023-02-23T11:31:49;95816.19;;;13.79;52.85
66479;BME280;53294;47.912;13.526;2023-02-23T11:34:43;95811.47;;;13.67;52.63
66479;BME280;53294;47.912;13.526;2023-02-23T11:39:55;95803.53;;;13.71;51.98
66479;BME280;53294;47.912;13.526;2023-02-23T11:42:24;95818.09;;;13.40;51.96
66479;BME280;53294;47.912;13.526;2023-02-23T11:45:05;95812.03;;;13.52;52.42
66479;BME280;53294;47.912;13.526;2023-02-23T11:47:37;95809.97;;;13.31;52.67
66479;BME280;53294;47.912;13.526;2023-02-23T11:50:05;95809.84;;;13.27;52.56
66479;BME280;53294;47.912;13.526;2023-02-23T11:52:33;95804.78;;;13.26;52.45
66479;BME280;53294;47.912;13.526;2023-02-23T11:55:04;95808.72;;;13.37;52.44
66479;BME280;53294;47.912;13.526;2023-02-23T11:57:34;95796.84;;;13.38;52.20
66479;BME280;53294;47.912;13.526;2023-02-23T12:00:12;95797.81;;;13.72;51.94
66479;BME280;53294;47.912;13.526;2023-02-23T12:02:57;95798.91;;;13.80;51.90
66479;BME280;53294;47.912;13.526;2023-02-23T12:05:27;95799.38;;;13.73;51.57
66479;BME280;53294;47.912;13.526;2023-02-23T12:08:01;95797.94;;;13.85;51.66
66479;BME280;53294;47.912;13.526;2023-02-23T12:10:46;95797.81;;;13.72;50.92
66479;BME280;53294;47.912;13.526;2023-02-23T12:13:33;95791.63;;;13.72;51.57
66479;BME280;53294;47.912;13.526;2023-02-23T12:16:11;95796.22;;;14.01;50.74
66479;BME280;53294;47.912;13.526;2023-02-23T12:21:42;95788.31;;;13.96;50.87
66479;BME280;53294;47.912;13.526;2023-02-23T12:26:59;95781.25;;;14.12;50.68
66479;BME280;53294;47.912;13.526;2023-02-23T12:29:43;95777.25;;;14.18;50.67
66479;BME280;53294;47.912;13.526;2023-02-23T12:32:23;95774.88;;;14.17;50.83
66479;BME280;53294;47.912;13.526;2023-02-23T12:35:02;95779.22;;;14.30;50.12
66479;BME280;53294;47.912;13.526;2023-02-23T12:37:41;95774.66;;;14.43;50.36
66479;BME280;53294;47.912;13.526;2023-02-23T12:40:38;95771.63;;;14.24;50.58
66479;BME280;53294;47.912;13.526;2023-02-23T12:43:20;95772.41;;;14.24;50.24
66479;BME280;53294;47.912;13.526;2023-02-23T12:45:56;95768.75;;;14.29;50.39
66479;BME280;53294;47.912;13.526;2023-02-23T12:48:55;95771.97;;;14.22;50.56
66479;BME280;53294;47.912;13.526;2023-02-23T12:51:53;95761.47;;;14.42;50.28
66479;BME280;53294;47.912;13.526;2023-02-23T12:54:21;95764.00;;;14.47;49.89
66479;BME280;53294;47.912;13.526;2023-02-23T12:57:12;95757.03;;;14.67;49.84
66479;BME280;53294;47.912;13.526;2023-02-23T13:06:24;95767.63;;;14.30;50.10
66479;BME280;53294;47.912;13.526;2023-02-23T13:12:22;95764.91;;;14.09;50.15
66479;BME280;53294;47.912;13.526;2023-02-23T13:19:14;95762.44;;;14.25;50.16
66479;BME280;53294;47.912;13.526;2023-02-23T13:21:39;95752.97;;;14.31;49.77
66479;BME280;53294;47.912;13.526;2023-02-23T13:24:28;95763.69;;;13.97;50.46
66479;BME280;53294;47.912;13.526;2023-02-23T13:27:24;95776.66;;;13.44;51.60
66479;BME280;53294;47.912;13.526;2023-02-23T13:29:53;95768.44;;;13.41;51.56
66479;BME280;53294;47.912;13.526;2023-02-23T13:35:38;95759.00;;;13.86;50.91
66479;BME280;53294;47.912;13.526;2023-02-23T13:41:04;95762.22;;;14.30;50.57
66479;BME280;53294;47.912;13.526;2023-02-23T13:43:43;95759.97;;;14.32;50.52
66479;BME280;53294;47.912;13.526;2023-02-23T13:54:55;95754.50;;;14.41;50.04
66479;BME280;53294;47.912;13.526;2023-02-23T13:57:23;95748.06;;;14.33;50.16
66479;BME280;53294;47.912;13.526;2023-02-23T13:59:50;95761.63;;;14.03;51.08
66479;BME280;53294;47.912;13.526;2023-02-23T14:02:34;95755.94;;;13.96;50.85
66479;BME280;53294;47.912;13.526;2023-02-23T14:07:47;95759.06;;;13.38;51.90
66479;BME280;53294;47.912;13.526;2023-02-23T14:10:20;95760.19;;;13.67;51.20
66479;BME280;53294;47.912;13.526;2023-02-23T14:15:43;95753.03;;;13.71;51.46
66479;BME280;53294;47.912;13.526;2023-02-23T14:23:48;95756.38;;;14.28;50.33
66479;BME280;53294;47.912;13.526;2023-02-23T14:29:23;95747.66;;;14.43;50.35
66479;BME280;53294;47.912;13.526;2023-02-23T14:31:58;95745.56;;;14.28;50.46
66479;BME280;53294;47.912;13.526;2023-02-23T14:37:22;95745.41;;;14.45;49.98
66479;BME280;53294;47.912;13.526;2023-02-23T14:39:52;95751.63;;;14.25;50.19
66479;BME280;53294;47.912;13.526;2023-02-23T14:42:25;95746.00;;;14.09;50.48
66479;BME280;53294;47.912;13.526;2023-02-23T14:44:55;95744.06;;;13.88;50.88
66479;BME280;53294;47.912;13.526;2023-02-23T14:47:24;95746.75;;;13.88;51.02
66479;BME280;53294;47.912;13.526;2023-02-23T14:49:59;95748.56;;;14.05;50.73
66479;BME280;53294;47.912;13.526;2023-02-23T14:52:29;95745.56;;;14.28;49.92
66479;BME280;53294;47.912;13.526;2023-02-23T14:57:39;95743.31;;;14.30;50.12
66479;BME280;53294;47.912;13.526;2023-02-23T15:00:17;95743.06;;;14.44;50.07
66479;BME280;53294;47.912;13.526;2023-02-23T15:03:00;95750.28;;;14.31;50.37
66479;BME280;53294;47.912;13.526;2023-02-23T15:05:32;95743.09;;;14.35;50.21
66479;BME280;53294;47.912;13.526;2023-02-23T15:08:03;95747.13;;;14.50;49.91
66479;BME280;53294;47.912;13.526;2023-02-23T15:10:37;95749.16;;;14.32;50.41
66479;BME280;53294;47.912;13.526;2023-02-23T15:13:09;95746.53;;;14.44;50.04
66479;BME280;53294;47.912;13.526;2023-02-23T15:15:41;95739.81;;;14.50;49.87
66479;BME280;53294;47.912;13.526;2023-02-23T15:21:34;95756.28;;;13.86;50.95
66479;BME280;53294;47.912;13.526;2023-02-23T15:24:12;95753.00;;;13.80;50.85
66479;BME280;53294;47.912;13.526;2023-02-23T15:26:42;95751.84;;;13.90;50.58
66479;BME280;53294;47.912;13.526;2023-02-23T15:31:36;95735.53;;;14.07;50.12
66479;BME280;53294;47.912;13.526;2023-02-23T15:34:09;95737.38;;;14.15;50.16
66479;BME280;53294;47.912;13.526;2023-02-23T15:36:36;95736.25;;;14.16;50.08
66479;BME280;53294;47.912;13.526;2023-02-23T15:39:06;95736.19;;;14.25;49.72
66479;BME280;53294;47.912;13.526;2023-02-23T15:41:37;95745.91;;;14.26;49.80